Latest Weather Observations for Eucla

IDW60801

Issued at 1:35 pm WST Thursday 18 September 2014 (issued every 30 minutes, with the page automatically refreshed every 10 minutes)

About weather observations | Map of weather stations | Latest weather observations for WA | Other Formats
Station Details ID: 011003 Name: EUCLA Lat: -31.68 Lon: 128.90 Height: 93.1 m
Data from the previous 72 hours. | See also: Recent months at Eucla
Date/Time
WST
Temp
°C
App
Temp
°C
Dew
Point
Rel
Hum
%
Delta-T
°C
Wind Press
QNH
hPa
Press
MSL
hPa
Rain
since 9 am
mm
Dir
 
Spd
km/h
Gust
km/h
Spd
kts
Gust
kts
18/01:30pm 16.8 11.3 9.2 61 3.9 ESE 28 39 15 21 1021.3 1021.2 0.0
18/01:00pm 18.1 13.7 8.9 55 4.8 ESE 22 32 12 17 1021.7 1021.6 0.0
18/12:30pm 17.8 12.9 8.6 55 4.8 ESE 24 32 13 17 1022.2 1022.1 0.0
18/12:00pm 20.1 16.7 3.8 34 7.8 NE 11 26 6 14 1022.6 1022.5 0.0
18/11:30am 19.5 15.0 4.4 37 7.3 NE 17 30 9 16 1022.6 1022.5 0.0
18/11:00am 17.9 14.2 6.1 46 5.8 ENE 15 28 8 15 1023.6 1023.5 0.0
18/10:30am 15.7 13.6 8.2 61 3.8 E 9 17 5 9 1024.7 1024.6 0.0
18/10:00am 15.7 12.3 5.9 52 4.7 NE 13 20 7 11 1024.6 1024.5 0.0
18/09:30am 14.9 10.9 6.7 58 4.0 ENE 17 24 9 13 1023.9 1023.8 0.0
18/09:00am 14.0 10.1 7.3 64 3.3 NE 17 26 9 14 1025.0 1024.9 0.0
18/08:30am 12.9 9.7 8.4 74 2.2 NNE 15 22 8 12 1025.3 1025.2 0.0
18/08:00am 12.7 9.0 8.0 73 2.3 NNE 17 24 9 13 1025.2 1025.1 0.0
18/07:30am 12.5 8.8 7.8 73 2.3 NNE 17 26 9 14 1024.2 1024.1 0.0
18/07:00am 12.0 8.3 7.9 76 2.0 NE 17 26 9 14 1024.3 1024.2 0.0
18/06:30am 11.7 8.0 7.8 77 1.9 NE 17 26 9 14 1024.1 1024.0 0.0
18/06:00am 11.3 8.4 8.0 80 1.6 NNE 13 19 7 10 1024.7 1024.6 0.0
18/05:30am 11.3 8.9 8.5 83 1.4 NNE 11 15 6 8 1025.0 1024.9 0.0
18/05:00am 11.5 9.6 8.9 84 1.3 ENE 9 11 5 6 1024.6 1024.5 0.0
18/04:30am 11.9 10.1 9.3 84 1.3 ENE 9 17 5 9 1024.5 1024.4 0.0
18/04:00am 11.9 9.0 9.5 85 1.2 ENE 15 20 8 11 1023.0 1022.9 0.0
18/03:30am 12.1 9.5 9.3 83 1.4 ENE 13 17 7 9 1023.3 1023.2 0.0
18/03:00am 11.9 9.2 9.1 83 1.4 ENE 13 20 7 11 1023.1 1023.0 0.0
18/02:30am 11.7 8.7 9.4 86 1.2 ENE 15 20 8 11 1022.5 1022.4 0.0
18/02:00am 11.4 8.8 9.3 87 1.1 ENE 13 20 7 11 1022.7 1022.6 0.0
18/01:30am 11.0 9.1 8.9 87 1.0 ENE 9 13 5 7 1023.3 1023.2 0.0
18/01:00am 11.6 9.8 9.3 86 1.2 NE 9 13 5 7 1023.7 1023.6 0.0
18/12:30am 11.8 9.2 9.4 85 1.2 ENE 13 17 7 9 1023.3 1023.2 0.0
18/12:00am 11.9 9.0 9.5 85 1.2 E 15 26 8 14 1022.8 1022.7 0.0
 
Date/Time
WST
Temp
°C
App
Temp
°C
Dew
Point
Rel
Hum
%
Delta-T
°C
Wind Press
QNH
hPa
Press
MSL
hPa
Rain
since 9 am
mm
Dir
 
Spd
km/h
Gust
km/h
Spd
kts
Gust
kts
17/11:30pm 10.9 8.2 8.8 87 1.0 ENE 13 17 7 9 1022.8 1022.7 0.0
17/11:00pm 10.7 8.3 8.8 88 0.9 E 11 13 6 7 1023.2 1023.1 0.0
17/10:30pm 11.0 9.4 8.6 85 1.2 NE 7 9 4 5 1023.9 1023.8 0.0
17/10:00pm 12.0 10.1 9.0 82 1.5 ENE 9 13 5 7 1024.2 1024.1 0.0
17/09:30pm 12.9 10.3 9.2 78 1.9 E 13 22 7 12 1024.3 1024.2 0.0
17/09:00pm 12.9 9.9 9.2 78 1.9 E 15 22 8 12 1024.2 1024.1 0.0
17/08:30pm 13.2 9.8 9.3 77 2.0 E 17 24 9 13 1024.2 1024.1 0.0
17/08:00pm 13.1 10.4 8.8 75 2.2 E 13 20 7 11 1024.4 1024.3 0.0
17/07:30pm 13.1 10.0 9.0 76 2.1 E 15 19 8 10 1024.2 1024.1 0.0
17/07:00pm 13.3 10.2 9.0 75 2.2 E 15 24 8 13 1024.0 1023.9 0.0
17/06:30pm 13.6 10.5 8.7 72 2.5 E 15 24 8 13 1023.5 1023.4 0.0
17/06:00pm 13.5 10.3 8.6 72 2.5 E 15 24 8 13 1023.2 1023.1 0.0
17/05:30pm 13.8 10.2 8.4 70 2.7 E 17 28 9 15 1023.0 1022.9 0.0
17/05:00pm 14.4 10.2 8.4 67 3.0 E 20 32 11 17 1022.9 1022.8 0.0
17/04:30pm 15.0 10.8 8.3 64 3.4 E 20 32 11 17 1022.8 1022.7 0.0
17/04:00pm 15.8 10.8 8.1 60 3.9 ESE 24 35 13 19 1022.6 1022.5 0.0
17/03:30pm 16.1 11.9 8.1 59 4.1 ESE 20 33 11 18 1022.4 1022.3 0.0
17/03:00pm 16.6 11.7 8.3 58 4.2 E 24 33 13 18 1022.3 1022.2 0.0
17/02:30pm 16.7 12.4 7.9 56 4.5 ESE 20 32 11 17 1022.2 1022.1 0.0
17/02:00pm 16.7 12.0 7.9 56 4.4 E 22 35 12 19 1022.2 1022.1 0.0
17/01:30pm 17.1 12.3 7.5 53 4.8 ESE 22 33 12 18 1022.4 1022.3 0.0
17/01:00pm 17.6 13.2 7.6 52 5.1 ESE 20 32 11 17 1022.6 1022.5 0.0
17/12:30pm 17.5 12.7 7.5 52 5.1 ESE 22 32 12 17 1022.9 1022.8 0.0
17/12:00pm 17.3 12.6 7.9 54 4.8 ESE 22 32 12 17 1023.0 1022.9 0.0
17/11:30am 17.1 12.0 7.5 53 4.8 ESE 24 33 13 18 1023.3 1023.2 0.0
17/11:00am 16.9 12.1 7.5 54 4.7 ESE 22 33 12 18 1023.6 1023.5 0.0
17/10:30am 17.6 12.4 7.4 51 5.2 ESE 24 35 13 19 1024.1 1024.0 0.0
17/10:00am 16.7 11.8 7.1 53 4.8 ESE 22 32 12 17 1024.5 1024.4 0.0
17/09:30am 17.4 13.5 5.4 45 5.8 ENE 15 24 8 13 1024.7 1024.6 0.0
17/09:00am 16.7 12.9 5.6 48 5.3 ENE 15 26 8 14 1024.8 1024.7 0.0
17/08:30am 15.8 11.3 6.3 53 4.6 ENE 19 28 10 15 1024.9 1024.8 0.0
17/08:00am 15.0 10.5 6.3 56 4.2 ENE 19 28 10 15 1025.0 1024.9 0.0
17/07:30am 14.4 10.9 7.0 61 3.6 ENE 15 24 8 13 1024.9 1024.8 0.0
17/07:00am 11.7 8.3 6.0 68 2.7 NE 13 19 7 10 1024.6 1024.5 0.0
17/06:30am 8.9 5.7 4.9 76 1.8 NE 11 17 6 9 1024.2 1024.1 0.0
17/06:00am 6.7 3.4 4.4 85 1.0 NE 11 13 6 7 1023.9 1023.8 0.0
17/05:30am 6.2 2.4 4.0 86 0.9 NE 13 17 7 9 1023.7 1023.6 0.0
17/05:00am 6.3 2.9 4.1 86 0.9 NE 11 15 6 8 1023.6 1023.5 0.0
17/04:30am 6.3 2.6 4.5 88 0.8 NE 13 13 7 7 1023.1 1023.0 0.0
17/04:00am 5.0 1.6 3.8 92 0.5 NNE 11 13 6 7 1022.8 1022.7 0.0
17/03:30am 4.4 0.8 2.9 90 0.6 NNE 11 11 6 6 1022.7 1022.6 0.0
17/03:00am 5.5 1.9 3.0 84 1.0 NNE 11 13 6 7 1022.6 1022.5 0.0
17/02:30am 8.8 6.0 5.0 77 1.7 E 9 11 5 6 1022.5 1022.4 0.0
17/02:00am 9.2 6.4 5.0 75 1.9 E 9 13 5 7 1022.5 1022.4 0.0
17/01:30am 10.1 6.9 5.1 71 2.3 E 11 15 6 8 1022.5 1022.4 0.0
17/01:00am 9.8 6.6 5.2 73 2.1 E 11 15 6 8 1022.8 1022.7 0.0
17/12:30am 10.7 7.6 5.5 70 2.4 ESE 11 15 6 8 1023.1 1023.0 0.0
17/12:00am 10.8 7.6 5.3 69 2.5 ESE 11 15 6 8 1023.2 1023.1 0.0
 
Date/Time
WST
Temp
°C
App
Temp
°C
Dew
Point
Rel
Hum
%
Delta-T
°C
Wind Press
QNH
hPa
Press
MSL
hPa
Rain
since 9 am
mm
Dir
 
Spd
km/h
Gust
km/h
Spd
kts
Gust
kts
16/11:30pm 10.6 7.5 5.4 70 2.4 SE 11 15 6 8 1023.5 1023.4 0.0
16/11:00pm 10.3 7.5 5.3 71 2.3 SE 9 13 5 7 1023.8 1023.7 0.0
16/10:30pm 10.6 7.9 5.4 70 2.4 SE 9 13 5 7 1024.1 1024.0 0.0
16/10:00pm 10.4 7.6 5.2 70 2.4 SE 9 15 5 8 1024.2 1024.1 0.0
16/09:30pm 10.6 7.7 4.9 68 2.6 SSE 9 11 5 6 1024.3 1024.2 0.0
16/09:00pm 10.6 7.9 5.4 70 2.4 SSE 9 13 5 7 1024.2 1024.1 0.0
16/08:30pm 10.6 7.9 5.8 72 2.2 S 9 11 5 6 1024.2 1024.1 0.0
16/08:00pm 10.9 8.3 6.1 72 2.2 S 9 11 5 6 1024.1 1024.0 0.0
16/07:30pm 11.3 8.7 6.2 71 2.4 S 9 11 5 6 1024.2 1024.1 0.0
16/07:00pm 11.8 8.9 6.3 69 2.6 S 11 15 6 8 1024.1 1024.0 0.0
16/06:30pm 12.2 9.0 6.7 69 2.6 S 13 19 7 10 1023.7 1023.6 0.0
16/06:00pm 12.7 9.0 6.3 65 3.0 S 15 22 8 12 1023.5 1023.4 0.0
16/05:30pm 13.1 9.4 6.5 64 3.2 S 15 24 8 13 1023.1 1023.0 0.0
16/05:00pm 13.8 9.5 6.9 63 3.3 S 19 28 10 15 1022.9 1022.8 0.0
16/04:30pm 14.7 10.9 7.7 63 3.5 S 17 30 9 16 1022.7 1022.6 0.0
16/04:00pm 14.8 10.7 7.8 63 3.5 S 19 32 10 17 1022.3 1022.2 0.0
16/03:30pm 16.3 12.2 8.8 61 3.9 S 20 30 11 16 1022.0 1021.9 0.0
16/03:00pm 16.8 12.8 8.2 57 4.4 S 19 32 10 17 1021.9 1021.8 0.0
16/02:30pm 17.3 13.3 8.2 55 4.7 S 19 28 10 15 1021.5 1021.4 0.0
16/02:00pm 17.4 13.7 8.0 54 4.8 S 17 30 9 16 1021.7 1021.6 0.0
16/01:30pm 17.3 13.7 8.4 56 4.6 SSE 17 26 9 14 1021.7 1021.6 0.0
16/01:00pm 18.1 14.5 8.4 53 5.0 S 17 26 9 14 1022.0 1021.9 0.0
16/12:30pm 18.3 15.0 8.0 51 5.3 S 15 24 8 13 1022.2 1022.1 0.0
16/12:00pm 17.9 14.1 7.6 51 5.2 S 17 24 9 13 1022.4 1022.3 0.0
16/11:30am 18.4 14.9 7.2 48 5.7 S 15 22 8 12 1022.8 1022.7 0.0
16/11:00am 17.0 13.9 7.1 52 4.9 S 13 22 7 12 1022.7 1022.6 0.0
16/10:30am 16.6 14.0 7.8 56 4.5 SSE 11 19 6 10 1022.7 1022.6 0.0
16/10:00am 15.9 12.9 9.1 64 3.5 S 15 22 8 12 1022.7 1022.6 0.0
16/09:30am 16.8 13.9 9.7 63 3.7 SSE 15 26 8 14 1023.0 1022.9 0.0
16/09:00am 15.7 13.2 9.6 67 3.2 S 13 20 7 11 1023.3 1023.2 0.0
16/08:30am 17.3 15.0 10.4 64 3.7 SSE 13 22 7 12 1023.4 1023.3 0.0
16/08:00am 15.5 13.4 9.8 69 3.0 S 11 15 6 8 1023.5 1023.4 0.0
16/07:30am 14.9 14.1 9.5 70 2.8 NNE 4 7 2 4 1023.5 1023.4 0.0
16/07:00am 13.2 11.4 9.3 77 2.0 NNW 9 9 5 5 1023.6 1023.5 0.0
16/06:30am 9.9 8.2 8.2 89 0.8 NNW 7 9 4 5 1023.4 1023.3 0.0
16/06:00am 7.1 4.6 6.4 95 0.3 NNW 9 11 5 6 1023.2 1023.1 0.0
16/05:30am 6.1 3.4 5.5 96 0.3 NNW 9 11 5 6 1022.9 1022.8 0.0
16/05:00am 5.7 2.8 4.8 94 0.4 N 9 11 5 6 1022.8 1022.7 0.0
16/04:30am 8.3 6.4 6.6 89 0.8 NE 6 9 3 5 1022.5 1022.4 0.0
16/04:00am 10.4 8.2 7.8 84 1.3 SSE 9 11 5 6 1022.4 1022.3 0.0
16/03:30am 10.2 8.0 8.0 86 1.1 S 9 13 5 7 1022.0 1021.9 0.0
16/03:00am 10.4 7.9 8.2 86 1.1 SSE 11 13 6 7 1022.0 1021.9 0.0
16/02:30am 10.4 8.2 8.0 85 1.2 S 9 13 5 7 1021.8 1021.7 0.0
16/02:00am 10.2 7.9 7.6 84 1.2 S 9 11 5 6 1022.0 1021.9 0.0
16/01:30am 10.4 8.2 7.8 84 1.3 S 9 11 5 6 1022.0 1021.9 0.0
16/01:00am 10.9 8.8 8.3 84 1.3 S 9 13 5 7 1022.2 1022.1 0.0
16/12:30am 11.3 9.6 8.5 83 1.4 S 7 11 4 6 1022.4 1022.3 0.0
16/12:00am 11.5 9.5 8.5 82 1.5 SSE 9 13 5 7 1022.6 1022.5 0.0
 
Date/Time
WST
Temp
°C
App
Temp
°C
Dew
Point
Rel
Hum
%
Delta-T
°C
Wind Press
QNH
hPa
Press
MSL
hPa
Rain
since 9 am
mm
Dir
 
Spd
km/h
Gust
km/h
Spd
kts
Gust
kts
15/11:30pm 12.0 10.1 9.0 82 1.5 S 9 13 5 7 1022.8 1022.7 0.0
15/11:00pm 12.4 10.2 9.4 82 1.5 S 11 15 6 8 1022.9 1022.8 0.0
15/10:30pm 12.6 10.8 9.4 81 1.6 S 9 13 5 7 1023.1 1023.0 0.0
15/10:00pm 13.2 11.1 9.6 79 1.8 S 11 15 6 8 1023.5 1023.4 0.0
15/09:30pm 14.0 11.6 10.2 78 2.0 S 13 19 7 10 1023.7 1023.6 0.0
15/09:00pm 14.3 12.1 10.7 79 1.9 S 13 26 7 14 1023.7 1023.6 0.0
15/08:30pm 13.5 12.0 10.7 83 1.5 SSE 9 11 5 6 1023.8 1023.7 0.0
15/08:00pm 12.6 10.6 10.3 86 1.2 S 11 13 6 7 1023.7 1023.6 0.0
15/07:30pm 12.7 11.2 10.4 86 1.2 S 9 13 5 7 1023.9 1023.8 0.0
15/07:00pm 13.2 11.7 10.4 83 1.5 S 9 13 5 7 1023.7 1023.6 0.0
15/06:30pm 13.8 12.3 10.4 80 1.8 S 9 13 5 7 1023.3 1023.2 0.0
15/06:00pm 13.9 12.4 10.5 80 1.8 S 9 11 5 6 1023.0 1022.9 0.0
15/05:30pm 14.3 12.8 10.5 78 2.0 SSE 9 13 5 7 1022.5 1022.4 0.0
15/05:00pm 14.9 12.5 10.1 73 2.5 S 13 17 7 9 1022.6 1022.5 0.0
15/04:30pm 15.6 13.2 10.2 70 2.8 SSE 13 19 7 10 1022.3 1022.2 0.0
15/04:00pm 16.3 14.0 10.4 68 3.1 SSE 13 19 7 10 1021.8 1021.7 0.0
15/03:30pm 16.9 14.5 10.1 64 3.6 SSE 13 19 7 10 1021.3 1021.2 0.0
15/03:00pm 16.5 14.1 9.9 65 3.5 SSE 13 17 7 9 1021.3 1021.2 0.0
15/02:30pm 17.4 14.9 9.6 60 4.1 SSE 13 22 7 12 1021.9 1021.8 0.0
15/02:00pm 17.2 14.7 9.6 61 4.0 S 13 20 7 11 1021.9 1021.8 0.0

Other Formats:

Comma delimited format used in spreadsheet applications
http://www.bom.gov.au/fwo/IDW60801/IDW60801.94647.axf

JavaScript Object Notation format (JSON) in row-major order
http://www.bom.gov.au/fwo/IDW60801/IDW60801.94647.json